Lublin Radawiec, Poland
Current Conditions -  °F | °C
As of 6:00 AM on Friday 31 Oct 2014 (Local Time) from EPLB Reporting Station
Drizzle Drizzle  
Wind Chill: 37°   Ceiling: 300
Heat Index: 41°   Visibility: 0.93mi
Dew Point: 41°   Wind: 6mph
Humidity: 100%   Direction: 290°WNW
Pressure: 30.3"   Gusts: NA
Location:  51.2°N, 22.39°E
Report Text: EPLB 310400Z 29005KT 1500 -DZ BR OVC003 05/05 Q1026
Loading
Personal Weather Stations






























Interactive Weather Map
Tropical Storm Tracking
New forecast layout! Learn more

10-Day Weather Forecast

Advertisements
Track Severe Weather on mobile